Terminal Aerodrome Forecast
Issued by NWS Cleveland, OH

Home | Current Version | Previous Version | Graphics & Text | Print | Product List | Glossary On
Versions: 1 2 3 4 5 6 7 8 9 10 11 12 13 14 15 16
670
FTUS41 KCLE 252339
TAFERI
TAF
KERI 252339Z 2600/2624 27010G20KT P6SM BKN080
     FM260400 25010KT P6SM BKN100
     FM261000 23010KT P6SM VCSH BKN050
     FM261200 25012G22KT P6SM -SHRA OVC050
      TEMPO 2613/2617 4SM -TSRA OVC040CB
     FM261800 27015G25KT P6SM BKN060=

USA.gov is the U.S. government's official web portal to all federal, state and local government web resources and services.